sensor_id;sensor_type;location;lat;lon;timestamp;P1;durP1;ratioP1;P2;durP2;ratioP2
3189;SDS011;1606;51.946;10.558;2023-02-16T00:01:24;23.07;;;11.30;;
3189;SDS011;1606;51.946;10.558;2023-02-16T00:03:53;20.43;;;12.20;;
3189;SDS011;1606;51.946;10.558;2023-02-16T00:06:22;23.00;;;13.73;;
3189;SDS011;1606;51.946;10.558;2023-02-16T00:08:51;22.60;;;13.80;;
3189;SDS011;1606;51.946;10.558;2023-02-16T00:11:29;24.37;;;13.20;;
3189;SDS011;1606;51.946;10.558;2023-02-16T00:14:17;27.60;;;14.10;;
3189;SDS011;1606;51.946;10.558;2023-02-16T00:16:49;25.50;;;14.40;;
3189;SDS011;1606;51.946;10.558;2023-02-16T00:19:18;26.37;;;15.77;;
3189;SDS011;1606;51.946;10.558;2023-02-16T00:21:48;25.43;;;13.43;;
3189;SDS011;1606;51.946;10.558;2023-02-16T00:24:17;22.23;;;11.13;;
3189;SDS011;1606;51.946;10.558;2023-02-16T00:26:45;24.33;;;14.70;;
3189;SDS011;1606;51.946;10.558;2023-02-16T00:29:17;23.83;;;14.00;;
3189;SDS011;1606;51.946;10.558;2023-02-16T00:31:47;27.20;;;14.80;;
3189;SDS011;1606;51.946;10.558;2023-02-16T00:34:32;21.97;;;13.10;;
3189;SDS011;1606;51.946;10.558;2023-02-16T00:37:03;26.27;;;14.50;;
3189;SDS011;1606;51.946;10.558;2023-02-16T00:39:32;23.00;;;13.17;;
3189;SDS011;1606;51.946;10.558;2023-02-16T00:42:02;22.43;;;12.83;;
3189;SDS011;1606;51.946;10.558;2023-02-16T00:44:32;24.97;;;13.23;;
3189;SDS011;1606;51.946;10.558;2023-02-16T00:47:07;21.00;;;11.97;;
3189;SDS011;1606;51.946;10.558;2023-02-16T00:49:43;26.60;;;12.90;;
3189;SDS011;1606;51.946;10.558;2023-02-16T00:52:20;24.13;;;14.00;;
3189;SDS011;1606;51.946;10.558;2023-02-16T00:54:55;23.43;;;13.17;;
3189;SDS011;1606;51.946;10.558;2023-02-16T00:57:22;24.77;;;13.30;;
3189;SDS011;1606;51.946;10.558;2023-02-16T00:59:53;27.70;;;15.07;;
3189;SDS011;1606;51.946;10.558;2023-02-16T01:02:27;24.00;;;12.83;;
3189;SDS011;1606;51.946;10.558;2023-02-16T01:04:55;24.03;;;14.03;;
3189;SDS011;1606;51.946;10.558;2023-02-16T01:07:23;28.00;;;15.10;;
3189;SDS011;1606;51.946;10.558;2023-02-16T01:10:09;26.57;;;14.13;;
3189;SDS011;1606;51.946;10.558;2023-02-16T01:12:57;27.07;;;16.37;;
3189;SDS011;1606;51.946;10.558;2023-02-16T01:15:25;25.00;;;14.13;;
3189;SDS011;1606;51.946;10.558;2023-02-16T01:17:54;27.10;;;15.67;;
3189;SDS011;1606;51.946;10.558;2023-02-16T01:20:23;29.87;;;15.83;;
3189;SDS011;1606;51.946;10.558;2023-02-16T01:22:52;31.47;;;16.27;;
3189;SDS011;1606;51.946;10.558;2023-02-16T01:25:19;27.90;;;15.30;;
3189;SDS011;1606;51.946;10.558;2023-02-16T01:27:47;27.70;;;16.63;;
3189;SDS011;1606;51.946;10.558;2023-02-16T01:30:17;26.83;;;16.80;;
3189;SDS011;1606;51.946;10.558;2023-02-16T01:32:45;28.40;;;15.60;;
3189;SDS011;1606;51.946;10.558;2023-02-16T01:35:18;26.73;;;15.50;;
3189;SDS011;1606;51.946;10.558;2023-02-16T01:37:47;31.93;;;17.17;;
3189;SDS011;1606;51.946;10.558;2023-02-16T01:40:18;26.83;;;15.67;;
3189;SDS011;1606;51.946;10.558;2023-02-16T01:42:56;30.30;;;16.50;;
3189;SDS011;1606;51.946;10.558;2023-02-16T01:45:29;25.87;;;15.27;;
3189;SDS011;1606;51.946;10.558;2023-02-16T01:48:02;30.77;;;17.43;;
3189;SDS011;1606;51.946;10.558;2023-02-16T01:50:36;27.00;;;16.40;;
3189;SDS011;1606;51.946;10.558;2023-02-16T01:53:12;29.07;;;17.23;;
3189;SDS011;1606;51.946;10.558;2023-02-16T01:55:47;30.13;;;16.97;;
3189;SDS011;1606;51.946;10.558;2023-02-16T01:58:19;33.73;;;20.40;;
3189;SDS011;1606;51.946;10.558;2023-02-16T02:01:23;30.03;;;18.50;;
3189;SDS011;1606;51.946;10.558;2023-02-16T02:04:07;32.90;;;18.97;;
3189;SDS011;1606;51.946;10.558;2023-02-16T02:07:16;33.60;;;17.87;;
3189;SDS011;1606;51.946;10.558;2023-02-16T02:09:51;29.50;;;17.60;;
3189;SDS011;1606;51.946;10.558;2023-02-16T02:12:26;33.80;;;19.07;;
3189;SDS011;1606;51.946;10.558;2023-02-16T02:15:00;35.03;;;19.60;;
3189;SDS011;1606;51.946;10.558;2023-02-16T02:17:28;36.23;;;20.47;;
3189;SDS011;1606;51.946;10.558;2023-02-16T02:19:59;37.80;;;20.67;;
3189;SDS011;1606;51.946;10.558;2023-02-16T02:26:02;39.23;;;20.73;;
3189;SDS011;1606;51.946;10.558;2023-02-16T02:28:55;31.60;;;19.77;;
3189;SDS011;1606;51.946;10.558;2023-02-16T02:31:36;35.53;;;19.80;;
3189;SDS011;1606;51.946;10.558;2023-02-16T02:34:18;35.00;;;21.13;;
3189;SDS011;1606;51.946;10.558;2023-02-16T02:36:57;30.40;;;17.50;;
3189;SDS011;1606;51.946;10.558;2023-02-16T02:39:33;34.47;;;20.80;;
3189;SDS011;1606;51.946;10.558;2023-02-16T02:42:08;33.80;;;19.97;;
3189;SDS011;1606;51.946;10.558;2023-02-16T02:44:45;33.60;;;19.50;;
3189;SDS011;1606;51.946;10.558;2023-02-16T02:47:18;33.07;;;17.63;;
3189;SDS011;1606;51.946;10.558;2023-02-16T02:49:49;29.87;;;19.27;;
3189;SDS011;1606;51.946;10.558;2023-02-16T02:52:18;34.33;;;18.80;;
3189;SDS011;1606;51.946;10.558;2023-02-16T02:54:46;33.37;;;19.73;;
3189;SDS011;1606;51.946;10.558;2023-02-16T02:57:34;38.03;;;18.70;;
3189;SDS011;1606;51.946;10.558;2023-02-16T03:00:26;33.30;;;19.07;;
3189;SDS011;1606;51.946;10.558;2023-02-16T03:03:11;35.40;;;18.37;;
3189;SDS011;1606;51.946;10.558;2023-02-16T03:05:43;33.80;;;18.47;;
3189;SDS011;1606;51.946;10.558;2023-02-16T03:08:12;25.60;;;16.40;;
3189;SDS011;1606;51.946;10.558;2023-02-16T03:10:44;27.10;;;15.03;;
3189;SDS011;1606;51.946;10.558;2023-02-16T03:13:34;31.37;;;17.90;;
3189;SDS011;1606;51.946;10.558;2023-02-16T03:16:06;28.40;;;16.20;;
3189;SDS011;1606;51.946;10.558;2023-02-16T03:18:37;33.83;;;19.25;;
3189;SDS011;1606;51.946;10.558;2023-02-16T03:21:26;30.97;;;16.80;;
3189;SDS011;1606;51.946;10.558;2023-02-16T03:24:13;31.53;;;18.30;;
3189;SDS011;1606;51.946;10.558;2023-02-16T03:27:05;29.40;;;18.30;;
3189;SDS011;1606;51.946;10.558;2023-02-16T03:29:53;31.80;;;16.30;;
3189;SDS011;1606;51.946;10.558;2023-02-16T03:32:24;32.63;;;17.70;;
3189;SDS011;1606;51.946;10.558;2023-02-16T03:34:53;38.30;;;21.33;;
3189;SDS011;1606;51.946;10.558;2023-02-16T03:37:20;37.50;;;20.33;;
3189;SDS011;1606;51.946;10.558;2023-02-16T03:39:49;38.80;;;20.73;;
3189;SDS011;1606;51.946;10.558;2023-02-16T03:42:35;34.50;;;20.77;;
3189;SDS011;1606;51.946;10.558;2023-02-16T03:45:03;33.90;;;19.03;;
3189;SDS011;1606;51.946;10.558;2023-02-16T03:47:32;37.23;;;19.17;;
3189;SDS011;1606;51.946;10.558;2023-02-16T03:50:00;38.97;;;21.40;;
3189;SDS011;1606;51.946;10.558;2023-02-16T03:52:27;33.33;;;19.43;;
3189;SDS011;1606;51.946;10.558;2023-02-16T03:54:55;35.90;;;19.90;;
3189;SDS011;1606;51.946;10.558;2023-02-16T03:57:23;39.00;;;20.00;;
3189;SDS011;1606;51.946;10.558;2023-02-16T03:59:51;35.67;;;18.60;;
3189;SDS011;1606;51.946;10.558;2023-02-16T04:02:19;30.23;;;18.80;;
3189;SDS011;1606;51.946;10.558;2023-02-16T04:04:48;35.80;;;18.40;;
3189;SDS011;1606;51.946;10.558;2023-02-16T04:07:16;34.03;;;19.30;;
3189;SDS011;1606;51.946;10.558;2023-02-16T04:09:43;31.77;;;19.23;;
3189;SDS011;1606;51.946;10.558;2023-02-16T04:12:11;34.83;;;21.10;;
3189;SDS011;1606;51.946;10.558;2023-02-16T04:14:53;36.07;;;18.87;;
3189;SDS011;1606;51.946;10.558;2023-02-16T04:17:21;34.47;;;19.23;;
3189;SDS011;1606;51.946;10.558;2023-02-16T04:19:50;40.10;;;20.13;;
3189;SDS011;1606;51.946;10.558;2023-02-16T04:22:18;37.03;;;21.60;;
3189;SDS011;1606;51.946;10.558;2023-02-16T04:24:45;39.63;;;20.33;;
3189;SDS011;1606;51.946;10.558;2023-02-16T04:27:13;31.27;;;19.17;;
3189;SDS011;1606;51.946;10.558;2023-02-16T04:29:41;32.83;;;19.23;;
3189;SDS011;1606;51.946;10.558;2023-02-16T04:32:09;34.87;;;19.70;;
3189;SDS011;1606;51.946;10.558;2023-02-16T04:34:37;34.80;;;18.00;;
3189;SDS011;1606;51.946;10.558;2023-02-16T04:37:06;33.33;;;18.20;;
3189;SDS011;1606;51.946;10.558;2023-02-16T04:39:33;37.13;;;19.37;;
3189;SDS011;1606;51.946;10.558;2023-02-16T04:42:01;33.90;;;18.77;;
3189;SDS011;1606;51.946;10.558;2023-02-16T04:44:29;31.70;;;18.17;;
3189;SDS011;1606;51.946;10.558;2023-02-16T04:46:57;43.83;;;22.60;;
3189;SDS011;1606;51.946;10.558;2023-02-16T04:49:24;37.93;;;22.47;;
3189;SDS011;1606;51.946;10.558;2023-02-16T04:51:53;38.57;;;21.33;;
3189;SDS011;1606;51.946;10.558;2023-02-16T04:54:22;37.43;;;19.90;;
3189;SDS011;1606;51.946;10.558;2023-02-16T04:56:49;29.10;;;18.23;;
3189;SDS011;1606;51.946;10.558;2023-02-16T04:59:17;32.10;;;19.60;;
3189;SDS011;1606;51.946;10.558;2023-02-16T05:01:45;39.90;;;22.97;;
3189;SDS011;1606;51.946;10.558;2023-02-16T05:04:14;41.47;;;22.90;;
3189;SDS011;1606;51.946;10.558;2023-02-16T05:06:42;37.40;;;21.00;;
3189;SDS011;1606;51.946;10.558;2023-02-16T05:09:10;44.37;;;22.87;;
3189;SDS011;1606;51.946;10.558;2023-02-16T05:11:39;42.47;;;23.57;;
3189;SDS011;1606;51.946;10.558;2023-02-16T05:14:27;43.00;;;23.40;;
3189;SDS011;1606;51.946;10.558;2023-02-16T05:17:08;42.83;;;21.57;;
3189;SDS011;1606;51.946;10.558;2023-02-16T05:19:37;37.80;;;21.50;;
3189;SDS011;1606;51.946;10.558;2023-02-16T05:22:06;36.80;;;20.60;;
3189;SDS011;1606;51.946;10.558;2023-02-16T05:24:34;36.27;;;20.47;;
3189;SDS011;1606;51.946;10.558;2023-02-16T05:27:04;35.37;;;19.50;;
3189;SDS011;1606;51.946;10.558;2023-02-16T05:29:33;38.03;;;18.93;;
3189;SDS011;1606;51.946;10.558;2023-02-16T05:32:01;37.97;;;19.47;;
3189;SDS011;1606;51.946;10.558;2023-02-16T05:34:30;35.27;;;20.53;;
3189;SDS011;1606;51.946;10.558;2023-02-16T05:36:58;30.70;;;19.10;;
3189;SDS011;1606;51.946;10.558;2023-02-16T05:39:26;36.77;;;19.50;;
3189;SDS011;1606;51.946;10.558;2023-02-16T05:41:53;36.00;;;20.13;;
3189;SDS011;1606;51.946;10.558;2023-02-16T05:44:23;37.60;;;19.97;;
3189;SDS011;1606;51.946;10.558;2023-02-16T05:46:51;43.13;;;21.10;;
3189;SDS011;1606;51.946;10.558;2023-02-16T05:49:18;35.83;;;19.17;;
3189;SDS011;1606;51.946;10.558;2023-02-16T05:51:46;41.33;;;22.77;;
3189;SDS011;1606;51.946;10.558;2023-02-16T05:54:14;42.90;;;22.30;;
3189;SDS011;1606;51.946;10.558;2023-02-16T05:56:43;55.03;;;26.97;;
3189;SDS011;1606;51.946;10.558;2023-02-16T05:59:12;48.40;;;23.40;;
3189;SDS011;1606;51.946;10.558;2023-02-16T06:01:42;47.83;;;23.90;;
3189;SDS011;1606;51.946;10.558;2023-02-16T06:04:16;46.30;;;24.43;;
3189;SDS011;1606;51.946;10.558;2023-02-16T06:06:44;42.13;;;22.20;;
3189;SDS011;1606;51.946;10.558;2023-02-16T06:09:12;38.20;;;20.93;;
3189;SDS011;1606;51.946;10.558;2023-02-16T06:11:40;42.63;;;21.80;;
3189;SDS011;1606;51.946;10.558;2023-02-16T06:14:08;41.70;;;21.93;;
3189;SDS011;1606;51.946;10.558;2023-02-16T06:16:37;39.90;;;21.30;;
3189;SDS011;1606;51.946;10.558;2023-02-16T06:19:09;44.57;;;24.13;;
3189;SDS011;1606;51.946;10.558;2023-02-16T06:21:38;36.67;;;22.23;;
3189;SDS011;1606;51.946;10.558;2023-02-16T06:24:07;45.83;;;23.97;;
3189;SDS011;1606;51.946;10.558;2023-02-16T06:26:36;50.13;;;24.87;;
3189;SDS011;1606;51.946;10.558;2023-02-16T06:29:04;44.70;;;23.10;;
3189;SDS011;1606;51.946;10.558;2023-02-16T06:31:32;51.87;;;25.23;;
3189;SDS011;1606;51.946;10.558;2023-02-16T06:34:02;44.70;;;23.73;;
3189;SDS011;1606;51.946;10.558;2023-02-16T06:36:31;50.47;;;25.43;;
3189;SDS011;1606;51.946;10.558;2023-02-16T06:39:00;46.80;;;25.10;;
3189;SDS011;1606;51.946;10.558;2023-02-16T06:41:28;54.70;;;26.07;;
3189;SDS011;1606;51.946;10.558;2023-02-16T06:44:02;44.00;;;23.53;;
3189;SDS011;1606;51.946;10.558;2023-02-16T06:46:31;43.87;;;24.07;;
3189;SDS011;1606;51.946;10.558;2023-02-16T06:48:59;44.20;;;23.83;;
3189;SDS011;1606;51.946;10.558;2023-02-16T06:51:27;41.30;;;22.63;;
3189;SDS011;1606;51.946;10.558;2023-02-16T06:53:56;41.40;;;22.60;;
3189;SDS011;1606;51.946;10.558;2023-02-16T06:56:24;40.83;;;23.07;;
3189;SDS011;1606;51.946;10.558;2023-02-16T06:58:52;40.90;;;22.47;;
3189;SDS011;1606;51.946;10.558;2023-02-16T07:01:20;41.40;;;22.13;;
3189;SDS011;1606;51.946;10.558;2023-02-16T07:03:51;40.03;;;22.30;;
3189;SDS011;1606;51.946;10.558;2023-02-16T07:06:19;46.60;;;23.13;;
3189;SDS011;1606;51.946;10.558;2023-02-16T07:08:48;37.63;;;21.20;;
3189;SDS011;1606;51.946;10.558;2023-02-16T07:11:17;46.10;;;21.50;;
3189;SDS011;1606;51.946;10.558;2023-02-16T07:13:46;41.33;;;23.77;;
3189;SDS011;1606;51.946;10.558;2023-02-16T07:16:14;41.50;;;21.13;;
3189;SDS011;1606;51.946;10.558;2023-02-16T07:18:41;42.63;;;22.80;;
3189;SDS011;1606;51.946;10.558;2023-02-16T07:21:10;42.70;;;20.33;;
3189;SDS011;1606;51.946;10.558;2023-02-16T07:23:37;35.57;;;21.73;;
3189;SDS011;1606;51.946;10.558;2023-02-16T07:26:05;39.13;;;21.07;;
3189;SDS011;1606;51.946;10.558;2023-02-16T07:28:34;36.57;;;18.60;;
3189;SDS011;1606;51.946;10.558;2023-02-16T07:31:06;38.80;;;20.37;;
3189;SDS011;1606;51.946;10.558;2023-02-16T07:33:35;37.53;;;20.93;;
3189;SDS011;1606;51.946;10.558;2023-02-16T07:36:04;36.60;;;20.77;;
3189;SDS011;1606;51.946;10.558;2023-02-16T07:38:32;43.00;;;22.67;;
3189;SDS011;1606;51.946;10.558;2023-02-16T07:41:00;42.55;;;23.55;;
3189;SDS011;1606;51.946;10.558;2023-02-16T07:43:31;38.47;;;21.87;;
3189;SDS011;1606;51.946;10.558;2023-02-16T07:46:01;37.70;;;20.40;;
3189;SDS011;1606;51.946;10.558;2023-02-16T07:48:29;37.03;;;21.83;;
3189;SDS011;1606;51.946;10.558;2023-02-16T07:50:57;37.87;;;21.50;;
3189;SDS011;1606;51.946;10.558;2023-02-16T07:53:25;41.50;;;21.37;;
3189;SDS011;1606;51.946;10.558;2023-02-16T07:55:53;34.10;;;19.33;;
3189;SDS011;1606;51.946;10.558;2023-02-16T07:58:21;36.47;;;19.60;;
3189;SDS011;1606;51.946;10.558;2023-02-16T08:00:56;35.10;;;19.27;;
3189;SDS011;1606;51.946;10.558;2023-02-16T08:03:33;39.37;;;19.70;;
3189;SDS011;1606;51.946;10.558;2023-02-16T08:06:01;36.43;;;19.67;;
3189;SDS011;1606;51.946;10.558;2023-02-16T08:08:29;36.53;;;19.80;;
3189;SDS011;1606;51.946;10.558;2023-02-16T08:10:58;36.23;;;18.73;;
3189;SDS011;1606;51.946;10.558;2023-02-16T08:13:26;28.07;;;16.27;;
3189;SDS011;1606;51.946;10.558;2023-02-16T08:15:54;32.53;;;18.17;;
3189;SDS011;1606;51.946;10.558;2023-02-16T08:18:21;31.53;;;16.83;;
3189;SDS011;1606;51.946;10.558;2023-02-16T08:20:50;28.90;;;16.57;;
3189;SDS011;1606;51.946;10.558;2023-02-16T08:23:29;30.33;;;16.73;;
3189;SDS011;1606;51.946;10.558;2023-02-16T08:25:57;32.47;;;17.70;;
3189;SDS011;1606;51.946;10.558;2023-02-16T08:28:25;32.97;;;18.67;;
3189;SDS011;1606;51.946;10.558;2023-02-16T08:30:54;33.90;;;15.07;;
3189;SDS011;1606;51.946;10.558;2023-02-16T08:33:22;32.20;;;17.47;;
3189;SDS011;1606;51.946;10.558;2023-02-16T08:35:51;26.87;;;15.67;;
3189;SDS011;1606;51.946;10.558;2023-02-16T08:38:19;34.73;;;15.90;;
3189;SDS011;1606;51.946;10.558;2023-02-16T08:40:47;27.13;;;15.70;;
3189;SDS011;1606;51.946;10.558;2023-02-16T08:43:16;27.57;;;16.10;;
3189;SDS011;1606;51.946;10.558;2023-02-16T08:45:44;29.90;;;16.63;;
3189;SDS011;1606;51.946;10.558;2023-02-16T08:48:12;26.17;;;14.53;;
3189;SDS011;1606;51.946;10.558;2023-02-16T08:50:42;26.93;;;14.43;;
3189;SDS011;1606;51.946;10.558;2023-02-16T08:53:13;24.20;;;14.10;;
3189;SDS011;1606;51.946;10.558;2023-02-16T08:55:41;26.60;;;13.80;;
3189;SDS011;1606;51.946;10.558;2023-02-16T08:58:08;27.47;;;14.83;;
3189;SDS011;1606;51.946;10.558;2023-02-16T09:00:36;23.17;;;13.60;;
3189;SDS011;1606;51.946;10.558;2023-02-16T09:03:04;23.17;;;13.30;;
3189;SDS011;1606;51.946;10.558;2023-02-16T09:05:32;23.93;;;13.00;;
3189;SDS011;1606;51.946;10.558;2023-02-16T09:08:00;30.83;;;12.27;;
3189;SDS011;1606;51.946;10.558;2023-02-16T09:10:29;22.10;;;13.03;;
3189;SDS011;1606;51.946;10.558;2023-02-16T09:12:58;24.10;;;14.70;;
3189;SDS011;1606;51.946;10.558;2023-02-16T09:15:25;28.30;;;12.93;;
3189;SDS011;1606;51.946;10.558;2023-02-16T09:17:53;28.17;;;14.77;;
3189;SDS011;1606;51.946;10.558;2023-02-16T09:20:21;19.77;;;11.33;;
3189;SDS011;1606;51.946;10.558;2023-02-16T09:22:49;22.17;;;13.00;;
3189;SDS011;1606;51.946;10.558;2023-02-16T09:25:18;24.13;;;13.20;;
3189;SDS011;1606;51.946;10.558;2023-02-16T09:27:47;23.27;;;13.07;;
3189;SDS011;1606;51.946;10.558;2023-02-16T09:30:15;22.20;;;12.40;;
3189;SDS011;1606;51.946;10.558;2023-02-16T09:32:43;21.50;;;11.33;;
3189;SDS011;1606;51.946;10.558;2023-02-16T09:35:11;21.07;;;11.67;;
3189;SDS011;1606;51.946;10.558;2023-02-16T09:37:39;21.37;;;12.47;;
3189;SDS011;1606;51.946;10.558;2023-02-16T09:40:08;21.60;;;12.23;;
3189;SDS011;1606;51.946;10.558;2023-02-16T09:42:43;22.20;;;12.00;;
3189;SDS011;1606;51.946;10.558;2023-02-16T09:45:21;24.10;;;12.10;;
3189;SDS011;1606;51.946;10.558;2023-02-16T09:47:51;26.67;;;13.27;;
3189;SDS011;1606;51.946;10.558;2023-02-16T09:50:21;22.37;;;13.03;;
3189;SDS011;1606;51.946;10.558;2023-02-16T09:53:12;24.00;;;13.30;;
3189;SDS011;1606;51.946;10.558;2023-02-16T09:55:48;22.58;;;13.32;;
3189;SDS011;1606;51.946;10.558;2023-02-16T09:58:25;25.33;;;13.30;;
3189;SDS011;1606;51.946;10.558;2023-02-16T10:01:00;18.73;;;10.23;;
3189;SDS011;1606;51.946;10.558;2023-02-16T10:03:35;20.40;;;10.80;;
3189;SDS011;1606;51.946;10.558;2023-02-16T10:06:26;19.50;;;12.03;;
3189;SDS011;1606;51.946;10.558;2023-02-16T10:08:58;20.53;;;10.80;;
3189;SDS011;1606;51.946;10.558;2023-02-16T10:11:31;16.83;;;10.53;;
3189;SDS011;1606;51.946;10.558;2023-02-16T10:14:11;19.67;;;10.17;;
3189;SDS011;1606;51.946;10.558;2023-02-16T10:16:50;17.40;;;9.63;;
3189;SDS011;1606;51.946;10.558;2023-02-16T10:19:22;18.10;;;9.63;;
3189;SDS011;1606;51.946;10.558;2023-02-16T10:21:55;16.60;;;9.70;;
3189;SDS011;1606;51.946;10.558;2023-02-16T10:24:28;17.40;;;9.30;;
3189;SDS011;1606;51.946;10.558;2023-02-16T10:27:06;15.97;;;9.50;;
3189;SDS011;1606;51.946;10.558;2023-02-16T10:29:40;16.80;;;8.90;;
3189;SDS011;1606;51.946;10.558;2023-02-16T10:32:11;16.90;;;9.87;;
3189;SDS011;1606;51.946;10.558;2023-02-16T10:34:47;16.67;;;9.73;;
3189;SDS011;1606;51.946;10.558;2023-02-16T10:37:18;17.60;;;8.90;;
3189;SDS011;1606;51.946;10.558;2023-02-16T10:40:18;17.50;;;9.37;;
3189;SDS011;1606;51.946;10.558;2023-02-16T10:42:53;18.50;;;9.67;;
3189;SDS011;1606;51.946;10.558;2023-02-16T10:45:30;19.80;;;10.17;;
3189;SDS011;1606;51.946;10.558;2023-02-16T10:48:02;18.23;;;9.27;;
3189;SDS011;1606;51.946;10.558;2023-02-16T10:50:32;17.70;;;9.90;;
3189;SDS011;1606;51.946;10.558;2023-02-16T10:53:05;16.87;;;10.40;;
3189;SDS011;1606;51.946;10.558;2023-02-16T10:55:38;18.47;;;10.27;;
3189;SDS011;1606;51.946;10.558;2023-02-16T10:58:12;13.90;;;8.70;;
3189;SDS011;1606;51.946;10.558;2023-02-16T11:00:46;18.00;;;9.23;;
3189;SDS011;1606;51.946;10.558;2023-02-16T11:03:20;13.27;;;8.27;;
3189;SDS011;1606;51.946;10.558;2023-02-16T11:05:51;14.33;;;9.20;;
3189;SDS011;1606;51.946;10.558;2023-02-16T11:08:19;16.13;;;8.70;;
3189;SDS011;1606;51.946;10.558;2023-02-16T11:10:50;18.23;;;8.70;;
3189;SDS011;1606;51.946;10.558;2023-02-16T11:13:21;17.13;;;9.77;;
3189;SDS011;1606;51.946;10.558;2023-02-16T11:15:54;15.20;;;8.53;;
3189;SDS011;1606;51.946;10.558;2023-02-16T11:18:31;17.17;;;7.60;;
3189;SDS011;1606;51.946;10.558;2023-02-16T11:21:03;15.43;;;8.57;;
3189;SDS011;1606;51.946;10.558;2023-02-16T11:23:33;19.33;;;9.10;;
3189;SDS011;1606;51.946;10.558;2023-02-16T11:26:03;15.93;;;8.87;;
3189;SDS011;1606;51.946;10.558;2023-02-16T11:28:32;16.97;;;10.70;;
3189;SDS011;1606;51.946;10.558;2023-02-16T11:31:08;15.67;;;9.70;;
3189;SDS011;1606;51.946;10.558;2023-02-16T11:33:40;15.30;;;8.40;;
3189;SDS011;1606;51.946;10.558;2023-02-16T11:38:59;18.40;;;9.70;;
3189;SDS011;1606;51.946;10.558;2023-02-16T11:41:29;16.43;;;9.53;;
3189;SDS011;1606;51.946;10.558;2023-02-16T11:43:58;18.73;;;10.43;;
3189;SDS011;1606;51.946;10.558;2023-02-16T11:46:35;17.13;;;9.73;;
3189;SDS011;1606;51.946;10.558;2023-02-16T11:49:21;15.83;;;9.47;;
3189;SDS011;1606;51.946;10.558;2023-02-16T11:51:55;16.13;;;9.87;;
3189;SDS011;1606;51.946;10.558;2023-02-16T11:54:24;18.27;;;10.40;;
3189;SDS011;1606;51.946;10.558;2023-02-16T11:57:02;15.50;;;9.90;;
3189;SDS011;1606;51.946;10.558;2023-02-16T11:59:34;20.53;;;11.23;;
3189;SDS011;1606;51.946;10.558;2023-02-16T12:05:09;18.37;;;10.40;;
3189;SDS011;1606;51.946;10.558;2023-02-16T12:07:50;16.63;;;9.70;;
3189;SDS011;1606;51.946;10.558;2023-02-16T12:10:44;17.10;;;9.90;;
3189;SDS011;1606;51.946;10.558;2023-02-16T12:13:25;16.87;;;10.10;;
3189;SDS011;1606;51.946;10.558;2023-02-16T12:16:00;15.73;;;10.53;;
3189;SDS011;1606;51.946;10.558;2023-02-16T12:18:41;16.60;;;9.20;;
3189;SDS011;1606;51.946;10.558;2023-02-16T12:21:15;16.63;;;8.97;;
3189;SDS011;1606;51.946;10.558;2023-02-16T12:23:52;17.33;;;9.80;;
3189;SDS011;1606;51.946;10.558;2023-02-16T12:26:29;16.90;;;9.50;;
3189;SDS011;1606;51.946;10.558;2023-02-16T12:29:07;18.20;;;9.17;;
3189;SDS011;1606;51.946;10.558;2023-02-16T12:31:50;17.07;;;10.27;;
3189;SDS011;1606;51.946;10.558;2023-02-16T12:34:30;16.47;;;9.83;;
3189;SDS011;1606;51.946;10.558;2023-02-16T12:37:07;17.10;;;10.20;;
3189;SDS011;1606;51.946;10.558;2023-02-16T12:39:49;14.80;;;8.73;;
3189;SDS011;1606;51.946;10.558;2023-02-16T12:42:31;14.57;;;8.37;;
3189;SDS011;1606;51.946;10.558;2023-02-16T12:45:14;18.27;;;8.60;;
3189;SDS011;1606;51.946;10.558;2023-02-16T12:47:45;18.63;;;9.30;;
3189;SDS011;1606;51.946;10.558;2023-02-16T12:50:20;16.60;;;9.73;;
3189;SDS011;1606;51.946;10.558;2023-02-16T12:52:51;15.40;;;9.17;;
3189;SDS011;1606;51.946;10.558;2023-02-16T12:55:24;17.20;;;9.87;;
3189;SDS011;1606;51.946;10.558;2023-02-16T12:57:57;19.77;;;9.33;;
3189;SDS011;1606;51.946;10.558;2023-02-16T13:00:33;16.20;;;9.30;;
3189;SDS011;1606;51.946;10.558;2023-02-16T13:03:09;17.30;;;9.53;;
3189;SDS011;1606;51.946;10.558;2023-02-16T13:05:49;15.73;;;8.47;;
3189;SDS011;1606;51.946;10.558;2023-02-16T13:08:27;15.50;;;9.13;;
3189;SDS011;1606;51.946;10.558;2023-02-16T13:11:06;14.30;;;8.10;;
3189;SDS011;1606;51.946;10.558;2023-02-16T13:13:40;20.13;;;10.50;;
3189;SDS011;1606;51.946;10.558;2023-02-16T13:16:12;19.30;;;9.90;;
3189;SDS011;1606;51.946;10.558;2023-02-16T13:18:55;18.30;;;11.30;;
3189;SDS011;1606;51.946;10.558;2023-02-16T13:21:32;19.43;;;10.50;;
3189;SDS011;1606;51.946;10.558;2023-02-16T13:24:18;17.17;;;11.37;;
3189;SDS011;1606;51.946;10.558;2023-02-16T13:26:57;15.67;;;10.00;;
3189;SDS011;1606;51.946;10.558;2023-02-16T13:29:39;16.30;;;9.67;;
3189;SDS011;1606;51.946;10.558;2023-02-16T13:32:26;16.60;;;9.13;;
3189;SDS011;1606;51.946;10.558;2023-02-16T13:41:26;14.00;;;8.00;;
3189;SDS011;1606;51.946;10.558;2023-02-16T13:44:06;18.37;;;10.37;;
3189;SDS011;1606;51.946;10.558;2023-02-16T13:46:36;20.33;;;11.90;;
3189;SDS011;1606;51.946;10.558;2023-02-16T13:49:12;20.17;;;12.07;;
3189;SDS011;1606;51.946;10.558;2023-02-16T13:51:56;22.07;;;11.60;;
3189;SDS011;1606;51.946;10.558;2023-02-16T13:54:28;19.10;;;10.77;;
3189;SDS011;1606;51.946;10.558;2023-02-16T13:56:58;19.90;;;11.27;;
3189;SDS011;1606;51.946;10.558;2023-02-16T14:05:23;18.20;;;11.60;;
3189;SDS011;1606;51.946;10.558;2023-02-16T14:08:13;20.30;;;11.50;;
3189;SDS011;1606;51.946;10.558;2023-02-16T14:11:01;19.02;;;12.00;;
3189;SDS011;1606;51.946;10.558;2023-02-16T14:13:31;18.83;;;11.90;;
3189;SDS011;1606;51.946;10.558;2023-02-16T14:16:11;21.30;;;12.20;;
3189;SDS011;1606;51.946;10.558;2023-02-16T14:18:53;20.53;;;12.33;;
3189;SDS011;1606;51.946;10.558;2023-02-16T14:21:26;17.13;;;11.03;;
3189;SDS011;1606;51.946;10.558;2023-02-16T14:24:03;20.50;;;12.10;;
3189;SDS011;1606;51.946;10.558;2023-02-16T14:26:48;20.80;;;12.80;;
3189;SDS011;1606;51.946;10.558;2023-02-16T14:29:19;18.20;;;11.60;;
3189;SDS011;1606;51.946;10.558;2023-02-16T14:31:52;21.27;;;12.73;;
3189;SDS011;1606;51.946;10.558;2023-02-16T14:34:26;19.87;;;11.20;;
3189;SDS011;1606;51.946;10.558;2023-02-16T14:39:54;16.20;;;10.80;;
3189;SDS011;1606;51.946;10.558;2023-02-16T14:42:35;20.20;;;11.17;;
3189;SDS011;1606;51.946;10.558;2023-02-16T14:45:09;19.50;;;10.70;;
3189;SDS011;1606;51.946;10.558;2023-02-16T14:48:10;19.03;;;11.00;;
3189;SDS011;1606;51.946;10.558;2023-02-16T14:50:50;17.20;;;10.03;;
3189;SDS011;1606;51.946;10.558;2023-02-16T14:53:47;19.33;;;11.83;;
3189;SDS011;1606;51.946;10.558;2023-02-16T14:56:29;19.37;;;10.30;;
3189;SDS011;1606;51.946;10.558;2023-02-16T14:59:05;15.70;;;10.07;;
3189;SDS011;1606;51.946;10.558;2023-02-16T15:01:43;17.30;;;10.87;;
3189;SDS011;1606;51.946;10.558;2023-02-16T15:04:15;23.33;;;13.23;;
3189;SDS011;1606;51.946;10.558;2023-02-16T15:06:53;18.20;;;11.60;;
3189;SDS011;1606;51.946;10.558;2023-02-16T15:09:23;24.80;;;12.40;;
3189;SDS011;1606;51.946;10.558;2023-02-16T15:11:56;18.13;;;11.00;;
3189;SDS011;1606;51.946;10.558;2023-02-16T15:14:45;21.40;;;12.07;;
3189;SDS011;1606;51.946;10.558;2023-02-16T15:17:18;21.90;;;12.03;;
3189;SDS011;1606;51.946;10.558;2023-02-16T15:19:56;18.83;;;11.70;;
3189;SDS011;1606;51.946;10.558;2023-02-16T15:22:29;18.60;;;10.70;;
3189;SDS011;1606;51.946;10.558;2023-02-16T15:24:58;20.90;;;12.00;;
3189;SDS011;1606;51.946;10.558;2023-02-16T15:27:27;19.37;;;12.70;;
3189;SDS011;1606;51.946;10.558;2023-02-16T15:30:03;21.40;;;12.03;;
3189;SDS011;1606;51.946;10.558;2023-02-16T15:32:34;20.83;;;12.77;;
3189;SDS011;1606;51.946;10.558;2023-02-16T15:35:09;22.93;;;12.30;;